createdAt,value
2022-10-08T00:03:29.027Z,12.50
2022-10-08T00:11:42.012Z,12.40
2022-10-08T00:31:04.964Z,12.20
2022-10-08T00:33:48.554Z,12.10
2022-10-08T00:45:01.640Z,12.00
2022-10-08T00:48:06.354Z,11.90
2022-10-08T00:50:43.099Z,11.80
2022-10-08T00:53:24.401Z,11.80
2022-10-08T00:56:01.521Z,11.80
2022-10-08T00:58:37.243Z,11.70
2022-10-08T01:01:13.197Z,11.70
2022-10-08T01:03:48.783Z,11.70
2022-10-08T01:06:25.190Z,11.70
2022-10-08T01:37:41.218Z,11.30
2022-10-08T01:40:18.830Z,11.30
2022-10-08T01:42:52.670Z,11.30
2022-10-08T01:45:31.683Z,11.20
2022-10-08T01:48:08.008Z,11.20
2022-10-08T01:51:01.894Z,11.20
2022-10-08T01:53:39.930Z,11.20
2022-10-08T01:56:15.056Z,11.10
2022-10-08T01:59:07.126Z,11.10
2022-10-08T02:01:59.661Z,11.10
2022-10-08T02:04:34.480Z,11.00
2022-10-08T02:07:14.601Z,11.00
2022-10-08T02:09:51.414Z,11.00
2022-10-08T02:12:22.976Z,10.90
2022-10-08T02:14:55.871Z,10.90
2022-10-08T02:18:15.133Z,10.90
2022-10-08T02:20:50.553Z,10.80
2022-10-08T02:23:31.051Z,10.80
2022-10-08T02:26:02.839Z,10.80
2022-10-08T02:28:39.976Z,10.70
2022-10-08T02:31:34.310Z,10.70
2022-10-08T02:34:15.784Z,10.60
2022-10-08T02:36:53.174Z,10.60
2022-10-08T02:39:24.380Z,10.60
2022-10-08T02:42:00.003Z,10.60
2022-10-08T02:44:38.619Z,10.50
2022-10-08T02:47:12.111Z,10.50
2022-10-08T02:49:49.501Z,10.50
2022-10-08T02:52:20.457Z,10.40
2022-10-08T02:54:51.925Z,10.40
2022-10-08T02:57:39.936Z,10.40
2022-10-08T03:00:08.794Z,10.40
2022-10-08T03:03:08.035Z,10.30
2022-10-08T05:49:51.379Z,9.30
2022-10-08T05:52:18.933Z,9.40
2022-10-08T05:54:46.110Z,9.40
2022-10-08T06:02:23.409Z,9.40
2022-10-08T06:04:51.410Z,9.50
2022-10-08T06:07:28.839Z,9.50
2022-10-08T06:09:56.669Z,9.60
2022-10-08T06:12:24.063Z,9.60
2022-10-08T06:39:25.790Z,10.40
2022-10-08T06:46:39.562Z,10.80
2022-10-08T06:49:07.288Z,11.00
2022-10-08T06:51:34.979Z,11.10
2022-10-08T06:54:08.187Z,11.30
2022-10-08T06:56:56.951Z,11.40
2022-10-08T06:59:25.285Z,11.50
2022-10-08T07:01:52.469Z,11.60
2022-10-08T07:04:22.552Z,11.80
2022-10-08T07:06:49.707Z,11.90
2022-10-08T07:09:17.437Z,12.20
2022-10-08T07:11:44.769Z,12.40
2022-10-08T07:14:12.115Z,12.60
2022-10-08T07:16:39.431Z,12.80
2022-10-08T07:19:06.967Z,13.00
2022-10-08T07:21:34.593Z,13.20
2022-10-08T07:24:02.911Z,13.30
2022-10-08T07:26:34.740Z,13.50
2022-10-08T07:29:08.261Z,13.70
2022-10-08T07:31:37.812Z,14.00
2022-10-08T07:34:10.834Z,14.20
2022-10-08T07:36:39.702Z,14.40
2022-10-08T07:39:16.624Z,14.70
2022-10-08T07:41:44.085Z,14.90
2022-10-08T07:44:13.229Z,15.10
2022-10-08T07:46:50.900Z,15.20
2022-10-08T07:49:19.587Z,15.40
2022-10-08T07:51:48.628Z,15.60
2022-10-08T07:54:19.634Z,15.80
2022-10-08T07:56:47.671Z,16.00
2022-10-08T07:59:16.006Z,16.20
2022-10-08T08:01:43.829Z,16.30
2022-10-08T08:04:12.415Z,16.50
2022-10-08T08:06:48.230Z,16.80
2022-10-08T08:09:16.725Z,16.90
2022-10-08T08:16:13.721Z,17.30
2022-10-08T08:23:22.334Z,17.60
2022-10-08T08:25:49.909Z,18.10
2022-10-08T08:28:17.172Z,18.30
2022-10-08T08:30:44.173Z,18.50
2022-10-08T08:33:11.665Z,18.70
2022-10-08T08:35:38.955Z,18.90
2022-10-08T08:38:06.290Z,19.10
2022-10-08T08:40:33.995Z,19.30
2022-10-08T08:43:01.209Z,19.50
2022-10-08T08:45:51.877Z,19.70
2022-10-08T08:48:28.871Z,19.80
2022-10-08T08:50:59.406Z,20.00
2022-10-08T08:59:39.361Z,20.50
2022-10-08T09:03:52.181Z,21.00
2022-10-08T09:06:27.682Z,21.40
2022-10-08T09:09:34.850Z,21.40
2022-10-08T09:12:20.583Z,21.50
2022-10-08T09:14:55.065Z,21.60
2022-10-08T09:17:35.748Z,21.80
2022-10-08T09:20:03.962Z,21.90
2022-10-08T09:22:38.508Z,22.00
2022-10-08T09:25:12.112Z,22.00
2022-10-08T09:27:44.742Z,22.00
2022-10-08T09:30:29.294Z,22.10
2022-10-08T09:33:16.403Z,22.20
2022-10-08T09:35:50.684Z,22.40
2022-10-08T09:38:47.259Z,22.50
2022-10-08T09:41:19.622Z,22.90
2022-10-08T09:44:23.121Z,23.10
2022-10-08T09:47:05.188Z,23.20
2022-10-08T09:49:38.412Z,23.30
2022-10-08T09:52:21.441Z,23.40
2022-10-08T09:55:00.610Z,23.50
2022-10-08T09:57:30.749Z,23.70
2022-10-08T10:00:02.281Z,23.80
2022-10-08T10:02:38.132Z,23.90
2022-10-08T10:05:24.958Z,24.00
2022-10-08T10:07:53.284Z,24.10
2022-10-08T10:10:42.121Z,24.20
2022-10-08T10:13:38.663Z,24.40
2022-10-08T10:16:17.322Z,24.50
2022-10-08T10:19:07.415Z,24.60
2022-10-08T10:21:44.168Z,24.70
2022-10-08T10:24:50.389Z,24.80
2022-10-08T10:27:43.990Z,25.00
2022-10-08T10:30:14.250Z,25.20
2022-10-08T10:32:51.268Z,25.30
2022-10-08T10:35:28.873Z,25.30
2022-10-08T10:38:40.814Z,25.40
2022-10-08T10:41:43.071Z,25.60
2022-10-08T10:44:28.095Z,25.80
2022-10-08T10:46:59.886Z,25.90
2022-10-08T10:49:34.397Z,26.00
2022-10-08T10:52:18.814Z,26.10
2022-10-08T10:55:12.490Z,26.10
2022-10-08T10:58:17.865Z,26.20
2022-10-08T11:01:16.466Z,26.30
2022-10-08T11:04:17.521Z,26.40
2022-10-08T11:07:25.066Z,26.40
2022-10-08T11:10:09.265Z,26.50
2022-10-08T11:13:31.236Z,26.70
2022-10-08T11:16:09.371Z,26.80
2022-10-08T11:18:52.069Z,27.00
2022-10-08T11:21:43.478Z,27.10
2022-10-08T11:25:02.614Z,27.00
2022-10-08T11:27:55.130Z,27.50
2022-10-08T11:30:50.995Z,27.80
2022-10-08T11:33:19.523Z,27.70
2022-10-08T11:36:06.760Z,28.00
2022-10-08T11:38:59.956Z,28.40
2022-10-08T11:42:05.385Z,28.30
2022-10-08T11:44:32.806Z,28.40
2022-10-08T11:47:41.486Z,28.30
2022-10-08T11:50:32.630Z,28.50
2022-10-08T11:53:22.070Z,28.40
2022-10-08T11:55:56.943Z,28.20
2022-10-08T11:58:35.177Z,28.20
2022-10-08T12:01:09.877Z,28.10
2022-10-08T12:03:42.836Z,28.10
2022-10-08T12:06:19.066Z,28.10
2022-10-08T12:08:53.710Z,28.00
2022-10-08T12:11:35.280Z,27.90
2022-10-08T12:14:12.132Z,28.00
2022-10-08T12:16:48.373Z,27.90
2022-10-08T12:19:34.821Z,28.10
2022-10-08T12:22:25.262Z,28.10
2022-10-08T12:25:04.703Z,28.00
2022-10-08T12:27:37.929Z,28.40
2022-10-08T12:30:14.190Z,28.40
2022-10-08T12:32:44.354Z,28.40
2022-10-08T12:36:07.489Z,28.60
2022-10-08T12:39:04.750Z,28.30
2022-10-08T12:41:42.957Z,28.30
2022-10-08T12:44:40.629Z,28.50
2022-10-08T12:47:36.477Z,28.60
2022-10-08T12:50:37.925Z,28.80
2022-10-08T12:53:08.013Z,28.60
2022-10-08T12:55:47.140Z,28.90
2022-10-08T12:58:37.461Z,29.10
2022-10-08T13:01:06.146Z,28.70
2022-10-08T13:03:33.792Z,28.90
2022-10-08T13:06:16.545Z,28.70
2022-10-08T13:08:44.916Z,28.60
2022-10-08T13:11:15.420Z,28.70
2022-10-08T13:13:50.136Z,28.60
2022-10-08T13:16:22.611Z,28.50
2022-10-08T13:18:54.088Z,28.30
2022-10-08T13:21:36.582Z,28.30
2022-10-08T13:24:11.597Z,28.20
2022-10-08T13:26:48.207Z,28.10
2022-10-08T13:29:24.386Z,28.10
2022-10-08T13:32:35.169Z,28.00
2022-10-08T13:35:05.097Z,27.70
2022-10-08T13:37:39.183Z,27.60
2022-10-08T13:40:12.461Z,27.50
2022-10-08T13:42:46.514Z,27.20
2022-10-08T13:45:26.301Z,27.10
2022-10-08T13:47:55.093Z,26.90
2022-10-08T13:50:24.123Z,26.70
2022-10-08T13:52:55.604Z,26.60
2022-10-08T13:55:31.089Z,26.40
2022-10-08T13:58:02.982Z,26.30
2022-10-08T14:00:35.451Z,26.10
2022-10-08T14:03:03.413Z,25.90
2022-10-08T14:05:40.303Z,25.60
2022-10-08T14:08:19.253Z,25.40
2022-10-08T14:10:47.030Z,25.20
2022-10-08T14:13:15.982Z,25.00
2022-10-08T14:15:43.746Z,24.90
2022-10-08T14:18:10.863Z,24.80
2022-10-08T14:20:38.493Z,24.70
2022-10-08T14:23:06.001Z,24.70
2022-10-08T14:25:33.511Z,24.40
2022-10-08T14:28:07.380Z,24.30
2022-10-08T14:30:37.549Z,24.20
2022-10-08T14:33:12.865Z,24.00
2022-10-08T14:35:57.567Z,23.90
2022-10-08T14:38:25.390Z,23.80
2022-10-08T14:40:52.991Z,23.70
2022-10-08T14:43:27.759Z,23.60
2022-10-08T14:45:59.803Z,23.50
2022-10-08T14:52:44.635Z,23.30
2022-10-08T14:55:16.137Z,23.10
2022-10-08T14:57:43.989Z,23.00
2022-10-08T15:00:13.332Z,23.00
2022-10-08T15:02:40.845Z,22.90
2022-10-08T15:05:08.855Z,22.80
2022-10-08T15:07:36.059Z,22.70
2022-10-08T15:10:03.291Z,22.60
2022-10-08T15:12:32.975Z,22.60
2022-10-08T15:15:08.083Z,22.50
2022-10-08T15:17:36.054Z,22.50
2022-10-08T15:20:23.690Z,22.40
2022-10-08T15:22:51.528Z,22.40
2022-10-08T15:25:18.732Z,22.30
2022-10-08T15:28:04.252Z,22.20
2022-10-08T15:30:32.788Z,22.20
2022-10-08T15:33:04.436Z,22.10
2022-10-08T15:35:35.578Z,22.00
2022-10-08T15:38:03.105Z,22.00
2022-10-08T15:40:32.040Z,21.90
2022-10-08T15:42:59.531Z,21.90
2022-10-08T15:45:27.055Z,21.80
2022-10-08T15:47:54.665Z,21.80
2022-10-08T15:50:22.344Z,21.70
2022-10-08T15:57:51.606Z,21.60
2022-10-08T16:00:57.829Z,21.50
2022-10-08T16:03:28.623Z,21.40
2022-10-08T16:06:00.247Z,21.30
2022-10-08T16:08:56.963Z,21.20
2022-10-08T16:11:32.626Z,21.20
2022-10-08T16:14:23.067Z,21.10
2022-10-08T16:16:52.271Z,21.00
2022-10-08T16:19:26.099Z,20.90
2022-10-08T16:22:08.826Z,20.80
2022-10-08T16:24:36.162Z,20.80
2022-10-08T16:27:04.678Z,20.70
2022-10-08T16:29:35.288Z,20.70
2022-10-08T16:34:15.782Z,20.70
2022-10-08T16:38:33.058Z,20.60
2022-10-08T16:56:32.292Z,20.30
2022-10-08T17:54:01.686Z,19.10
2022-10-08T17:57:11.253Z,19.00
2022-10-08T18:31:12.546Z,18.30
2022-10-08T18:33:42.268Z,18.20
2022-10-08T18:36:19.842Z,18.20
2022-10-08T18:38:53.387Z,18.20
2022-10-08T18:41:24.917Z,18.10
2022-10-08T18:43:52.341Z,18.10
2022-10-08T18:46:22.664Z,18.10
2022-10-08T18:48:50.625Z,18.00
2022-10-08T18:51:26.881Z,18.00
2022-10-08T18:53:57.060Z,17.90
2022-10-08T18:56:29.262Z,17.90
2022-10-08T18:59:01.656Z,17.80
2022-10-08T19:01:33.529Z,17.80
2022-10-08T19:04:05.604Z,17.80
2022-10-08T19:06:37.905Z,17.70
2022-10-08T19:09:07.015Z,17.60
2022-10-08T19:11:44.887Z,17.70
2022-10-08T19:14:16.992Z,17.60
2022-10-08T19:16:45.481Z,17.50
2022-10-08T19:19:21.338Z,17.50
2022-10-08T19:21:49.988Z,17.50
2022-10-08T19:24:24.119Z,17.40
2022-10-08T19:26:53.386Z,17.40
2022-10-08T19:29:26.694Z,17.40
2022-10-08T19:31:55.442Z,17.40
2022-10-08T19:34:26.762Z,17.30
2022-10-08T19:36:56.108Z,17.30
2022-10-08T19:39:28.147Z,17.30
2022-10-08T19:41:55.611Z,17.30
2022-10-08T19:44:22.835Z,17.30
2022-10-08T19:46:50.796Z,17.30
2022-10-08T19:49:19.018Z,17.30
2022-10-08T19:51:46.634Z,17.20
2022-10-08T19:54:14.852Z,17.20
2022-10-08T19:56:43.316Z,17.20
2022-10-08T19:59:12.658Z,17.20
2022-10-08T20:01:41.787Z,17.20
2022-10-08T20:04:10.126Z,17.10
2022-10-08T20:06:41.236Z,17.10
2022-10-08T20:09:12.343Z,17.10
2022-10-08T20:11:43.567Z,17.10
2022-10-08T20:14:13.164Z,17.10
2022-10-08T20:16:42.713Z,17.00
2022-10-08T20:19:20.010Z,17.00
2022-10-08T20:21:49.686Z,17.00
2022-10-08T20:24:18.708Z,17.00
2022-10-08T21:38:24.812Z,16.30
2022-10-08T21:41:02.386Z,16.30
2022-10-08T22:15:20.942Z,16.30
2022-10-08T22:17:57.490Z,16.20
2022-10-08T22:20:25.308Z,16.20
2022-10-08T22:22:53.283Z,16.20
2022-10-08T22:25:20.784Z,16.20
2022-10-08T22:27:57.428Z,16.20
2022-10-08T22:39:08.980Z,16.20
2022-10-08T22:41:37.385Z,16.10
2022-10-08T22:44:31.786Z,16.10
2022-10-08T22:46:59.901Z,16.10
2022-10-08T22:49:28.342Z,16.10
2022-10-08T22:51:55.545Z,16.10
2022-10-08T22:54:23.214Z,16.00
2022-10-08T22:56:50.682Z,16.00
2022-10-08T23:25:48.365Z,15.90
2022-10-08T23:28:18.947Z,15.90
2022-10-08T23:31:02.970Z,15.90
2022-10-08T23:33:31.214Z,15.90
2022-10-08T23:42:11.120Z,15.90
